Impacts METAR Board INFO
IDs:

KDTW - Detroit Metro/Wayne, MI, US

Updated at: 1512 UTC 19 Jan 2018
Potential Impact None Slight Moderate High
Time19/03Z 19/04Z 19/05Z 19/06Z 19/07Z 19/08Z 19/09Z 19/10Z 19/11Z 19/12Z 19/13Z 19/14Z 19/15Z
VIS10 10 10 10 10 10 10 10 10 10 10 10 10
CIG-- -- -- -- -- -- -- -- -- -- -- -- --
CoverCLRCLRCLRCLRCLRFEWFEWFEWFEWFEWFEWFEWFEW
FltCatVFRVFRVFRVFRVFRVFRVFRVFRVFRVFRVFRVFRVFR
WX--------------------------
WDir230230230230220220210230210210210220220
WSpd15 14 13 12 12 11 11 10 10 12 12 13 14
WGst25 -- -- -- -- -- -- -- -- -- -- -- --
Raw hourly METARs
KDTW 190253Z 23015G25KT 10SM CLR M04/M09 A2998 RMK AO2 SLP162 T10391094 58008
KDTW 190353Z 23014KT 10SM CLR M04/M09 A2999 RMK AO2 SLP164 T10391094
KDTW 190453Z 23013KT 10SM CLR M04/M09 A2998 RMK AO2 SLP161 T10441094 410221106
KDTW 190553Z 23012KT 10SM CLR M04/M09 A2998 RMK AO2 SLP159 T10441094 11039 21044 58002
KDTW 190653Z 22012KT 10SM CLR M04/M09 A2996 RMK AO2 SLP155 T10441094
KDTW 190753Z 22011KT 10SM FEW220 M05/M09 A2996 RMK AO2 SLP155 T10501094
KDTW 190853Z 21011KT 10SM FEW220 M05/M09 A2995 RMK AO2 SLP152 T10501094 56007
KDTW 190953Z 23010KT 10SM FEW220 M06/M10 A2998 RMK AO2 SLP161 T10561100
KDTW 191053Z 21010KT 10SM FEW220 M06/M10 A2997 RMK AO2 SLP156 T10561100
KDTW 191153Z 21012KT 10SM FEW220 M06/M10 A2995 RMK AO2 SLP153 T10561100 11044 21061 50000
KDTW 191253Z 21012KT 10SM FEW160 FEW220 M05/M09 A2996 RMK AO2 SLP153 T10501094
KDTW 191353Z 22013KT 10SM FEW160 FEW220 M04/M09 A2996 RMK AO2 SLP153 T10391089
KDTW 191453Z 22014KT 10SM FEW160 FEW220 M03/M09 A2995 RMK AO2 SLP151 T10281089 58001